Time;durP1;ratioP1;P1;durP2;ratioP2;P2;SDS_P1;SDS_P2;PMS_P1;PMS_P2;Temp;Humidity;BMP_temperature;BMP_pressure;BME280_temperature;BME280_humidity;BME280_pressure;Samples;Min_cycle;Max_cycle;Signal;HPM_P1;HPM_P2
2021/03/13 00:01:25;;;;;;;18.55;7.10;;;;;;;0.33;78.84;97949.53;1737752;81;21639;-71
2021/03/13 00:03:52;;;;;;;15.90;6.20;;;;;;;0.36;78.90;97944.74;1733113;81;21151;-72
2021/03/13 00:06:19;;;;;;;12.58;5.85;;;;;;;0.37;78.86;97943.87;1733890;80;21185;-72
2021/03/13 00:08:46;;;;;;;13.95;6.15;;;;;;;0.38;79.03;97939.12;1742419;81;21391;-72
2021/03/13 00:11:13;;;;;;;15.60;7.20;;;;;;;0.41;79.07;97933.88;1732453;81;21142;-71
2021/03/13 00:13:41;;;;;;;15.10;6.20;;;;;;;0.43;78.92;97929.53;1736700;79;21046;-72
2021/03/13 00:16:09;;;;;;;12.80;5.83;;;;;;;0.46;78.96;97923.00;1735205;79;21253;-72
2021/03/13 00:18:38;;;;;;;18.35;6.33;;;;;;;0.48;79.01;97919.94;1732969;81;21777;-72
2021/03/13 00:21:06;;;;;;;17.42;6.60;;;;;;;0.53;79.04;97921.88;1742732;81;21199;-71
2021/03/13 00:23:33;;;;;;;15.80;7.47;;;;;;;0.55;78.98;97912.39;1732512;81;21020;-72
2021/03/13 00:26:01;;;;;;;12.47;5.95;;;;;;;0.58;78.99;97909.71;1740093;81;26864;-72
2021/03/13 00:28:28;;;;;;;10.60;5.83;;;;;;;0.60;78.98;97907.94;1741386;81;21193;-71
2021/03/13 00:30:56;;;;;;;15.08;6.15;;;;;;;0.62;79.04;97901.47;1734544;81;21134;-71
2021/03/13 00:33:26;;;;;;;;;;;;;;;0.66;78.99;97901.28;1738054;81;22248;-71
2021/03/13 00:35:53;;;;;;;9.95;5.47;;;;;;;0.65;79.01;97893.20;1737416;81;20530;-73
2021/03/13 00:38:23;;;;;;;12.58;5.67;;;;;;;0.66;79.04;97891.01;1731179;81;21028;-71
2021/03/13 00:40:52;;;;;;;11.12;5.72;;;;;;;0.69;79.11;97890.06;1734238;80;21121;-72
2021/03/13 00:43:20;;;;;;;11.95;6.33;;;;;;;0.73;78.97;97892.06;1731704;81;21326;-72
2021/03/13 00:45:49;;;;;;;19.77;5.92;;;;;;;0.74;79.08;97886.88;1735743;81;21633;-71
2021/03/13 00:48:17;;;;;;;14.83;6.42;;;;;;;0.75;78.97;97881.30;1739499;81;21245;-72
2021/03/13 00:50:45;;;;;;;13.05;5.53;;;;;;;0.75;78.94;97894.14;1735436;81;21619;-72
2021/03/13 00:53:14;;;;;;;13.45;6.53;;;;;;;0.75;78.92;97889.00;1733663;81;21559;-72
2021/03/13 00:55:42;;;;;;;12.00;6.12;;;;;;;0.73;78.96;97883.08;1736682;81;20993;-71
2021/03/13 00:58:09;;;;;;;12.90;6.08;;;;;;;0.72;78.98;97892.52;1731635;81;21219;-71
2021/03/13 01:00:37;;;;;;;9.08;5.78;;;;;;;0.74;79.15;97893.30;1732604;81;21124;-70
2021/03/13 01:05:08;;;;;;;10.82;5.25;;;;;;;0.82;79.13;97885.33;1834244;77;22796;-71
2021/03/13 01:07:37;;;;;;;11.97;6.53;;;;;;;0.78;79.13;97883.75;1802599;78;21014;-70
2021/03/13 01:10:12;;;;;;;10.72;5.97;;;;;;;0.81;79.13;97879.35;1796947;78;21143;-71
2021/03/13 01:12:41;;;;;;;12.73;5.95;;;;;;;0.84;79.16;97875.80;1800195;78;21107;-73
2021/03/13 01:15:12;;;;;;;10.28;5.40;;;;;;;0.85;79.12;97867.22;1802612;77;21001;-72
2021/03/13 01:17:40;;;;;;;10.82;6.10;;;;;;;0.87;79.08;97868.01;1798607;78;21285;-73
2021/03/13 01:20:10;;;;;;;;;;;;;;;0.89;79.06;97867.48;1808094;78;21045;-73
2021/03/13 01:22:38;;;;;;;10.15;5.37;;;;;;;0.90;79.11;97860.19;1798748;78;21099;-73
2021/03/13 01:25:08;;;;;;;10.65;5.20;;;;;;;0.93;79.08;97861.80;1793042;78;21032;-73
2021/03/13 01:27:35;;;;;;;12.15;5.62;;;;;;;0.94;79.08;97863.01;1803964;78;21011;-72
2021/03/13 01:30:07;;;;;;;11.60;5.60;;;;;;;0.95;79.07;97855.67;1810320;78;28963;-73
2021/03/13 01:32:34;;;;;;;11.53;5.35;;;;;;;0.97;79.13;97855.63;1801141;77;21232;-72
2021/03/13 01:35:02;;;;;;;11.93;5.35;;;;;;;0.99;79.14;97864.96;1805038;78;21198;-72
2021/03/13 01:37:29;;;;;;;8.30;5.40;;;;;;;1.04;79.16;97854.06;1806251;78;21618;-73
2021/03/13 01:39:56;;;;;;;11.93;5.37;;;;;;;1.07;79.21;97855.22;1802450;78;21931;-73
2021/03/13 01:42:24;;;;;;;13.60;5.30;;;;;;;1.09;79.20;97853.44;1804053;78;21182;-73
2021/03/13 01:44:51;;;;;;;13.72;5.70;;;;;;;1.13;79.25;97858.46;1799582;78;21641;-73
2021/03/13 01:47:27;;;;;;;11.83;5.72;;;;;;;1.16;79.25;97851.91;1797398;78;21597;-73
2021/03/13 01:49:56;;;;;;;9.70;4.80;;;;;;;1.15;79.23;97861.78;1800623;78;21097;-71
2021/03/13 01:52:23;;;;;;;10.90;5.50;;;;;;;1.14;79.38;97854.98;1799003;78;21550;-70
2021/03/13 01:54:50;;;;;;;9.40;5.15;;;;;;;1.15;79.30;97856.64;1801833;78;21664;-71
2021/03/13 01:57:19;;;;;;;11.00;4.90;;;;;;;1.16;79.40;97858.34;1795641;78;21152;-72
2021/03/13 01:59:47;;;;;;;11.75;5.08;;;;;;;1.17;79.42;97856.14;1802423;78;21204;-72
2021/03/13 02:02:16;;;;;;;9.68;4.28;;;;;;;1.16;79.46;97853.20;1745970;81;21686;-71
2021/03/13 02:04:43;;;;;;;7.83;3.98;;;;;;;1.18;79.52;97848.84;1764674;79;21265;-72
2021/03/13 02:07:25;;;;;;;;;;;;;;;1.20;79.59;97843.16;1762549;80;21189;-71
2021/03/13 02:10:08;;;;;;;5.97;3.45;;;;;;;1.25;79.77;97843.83;1764517;80;20550;-70
2021/03/13 02:13:21;;;;;;;12.20;4.37;;;;;;;1.26;79.73;97832.63;1760186;80;21791;-72
2021/03/13 02:16:33;;;;;;;7.92;4.45;;;;;;;1.27;79.75;97831.75;1694287;83;21162;-72
2021/03/13 02:19:28;;;;;;;7.62;3.58;;;;;;;1.28;79.81;97832.12;1699437;83;21251;-71
2021/03/13 02:22:02;;;;;;;6.42;3.40;;;;;;;1.30;79.95;97837.61;1700374;83;21242;-72
2021/03/13 02:24:44;;;;;;;7.85;3.65;;;;;;;1.33;80.04;97837.93;1687507;83;21191;-71
2021/03/13 02:27:18;;;;;;;8.08;3.05;;;;;;;1.37;80.13;97834.33;1693520;82;21228;-72
2021/03/13 02:30:00;;;;;;;7.25;3.02;;;;;;;1.39;80.24;97832.53;1705886;82;21694;-72
2021/03/13 02:33:23;;;;;;;7.87;3.77;;;;;;;1.41;80.26;97826.89;1694055;83;21162;-71
2021/03/13 02:35:57;;;;;;;11.38;3.50;;;;;;;1.43;80.23;97826.39;1682882;83;21659;-72
2021/03/13 02:40:12;;;;;;;8.85;3.50;;;;;;;1.49;80.34;97818.41;1797005;78;22886;-71
2021/03/13 02:43:00;;;;;;;8.20;3.25;;;;;;;1.43;80.21;97817.81;1762507;79;21016;-71
2021/03/13 02:45:31;;;;;;;7.55;3.40;;;;;;;1.42;80.25;97812.29;1704913;83;21278;-73
2021/03/13 02:48:02;;;;;;;5.78;2.67;;;;;;;1.38;80.18;97809.02;1711519;83;21132;-72
2021/03/13 02:50:32;;;;;;;7.42;3.33;;;;;;;1.36;80.24;97814.66;1700738;83;21211;-72
2021/03/13 02:53:00;;;;;;;6.97;3.62;;;;;;;1.34;80.23;97813.87;1709744;82;21044;-73
2021/03/13 02:55:29;;;;;;;7.15;3.60;;;;;;;1.30;80.22;97811.06;1710538;82;21096;-73
2021/03/13 02:58:26;;;;;;;9.73;3.87;;;;;;;1.31;80.37;97798.58;1817431;77;22817;-73
2021/03/13 03:00:54;;;;;;;8.50;3.50;;;;;;;1.27;80.32;97802.19;1798763;78;20997;-72
2021/03/13 03:03:24;;;;;;;9.75;3.75;;;;;;;1.26;80.36;97797.92;1797063;78;21642;-73
2021/03/13 03:05:57;;;;;;;6.83;3.37;;;;;;;1.24;80.35;97801.86;1728226;80;21666;-72
2021/03/13 03:08:26;;;;;;;6.87;3.40;;;;;;;1.22;80.42;97792.08;1748745;80;21053;-73
2021/03/13 03:10:55;;;;;;;9.95;4.60;;;;;;;1.22;80.45;97796.39;1743325;79;21270;-72
2021/03/13 03:13:27;;;;;;;10.10;4.03;;;;;;;1.18;80.47;97789.26;1739439;79;21223;-73
2021/03/13 03:16:04;;;;;;;7.03;3.72;;;;;;;1.17;80.52;97785.00;1738634;81;21644;-73
2021/03/13 03:18:33;;;;;;;8.20;3.98;;;;;;;1.18;80.59;97783.28;1736429;81;21069;-72
2021/03/13 03:21:02;;;;;;;8.90;3.62;;;;;;;1.18;80.55;97778.14;1733377;81;21208;-72
2021/03/13 03:23:30;;;;;;;9.00;4.58;;;;;;;1.15;80.52;97770.11;1728028;81;21117;-73
2021/03/13 03:25:57;;;;;;;7.45;3.58;;;;;;;1.11;80.52;97774.52;1732793;81;21368;-73
2021/03/13 03:28:26;;;;;;;11.63;4.12;;;;;;;1.07;80.59;97772.98;1736432;81;21222;-72
2021/03/13 03:30:54;;;;;;;9.73;4.20;;;;;;;1.03;80.64;97768.84;1747348;81;21293;-73
2021/03/13 03:33:23;;;;;;;11.28;4.90;;;;;;;0.99;80.75;97759.59;1732632;81;21191;-72
2021/03/13 03:35:50;;;;;;;9.73;3.90;;;;;;;0.93;80.70;97759.84;1733211;81;22198;-72
2021/03/13 03:38:18;;;;;;;9.73;4.12;;;;;;;0.89;80.77;97756.99;1739598;79;21101;-72
2021/03/13 03:40:47;;;;;;;9.85;4.22;;;;;;;0.86;80.78;97750.69;1740443;81;21222;-72
2021/03/13 03:43:24;;;;;;;7.90;4.15;;;;;;;0.82;80.85;97746.13;1737247;81;21200;-72
2021/03/13 03:45:55;;;;;;;7.03;3.37;;;;;;;0.77;80.96;97752.34;1736282;80;21242;-72
2021/03/13 03:48:25;;;;;;;10.03;4.05;;;;;;;0.73;81.01;97752.06;1734228;79;21259;-72
2021/03/13 03:50:52;;;;;;;11.40;4.03;;;;;;;0.72;81.00;97754.25;1739095;81;21274;-71
2021/03/13 03:53:22;;;;;;;;;;;;;;;0.68;81.26;97751.44;1738220;80;21320;-71
2021/03/13 03:55:55;;;;;;;12.65;5.03;;;;;;;0.63;81.35;97749.86;1738608;81;20220;-71
2021/03/13 03:58:35;;;;;;;9.78;4.05;;;;;;;0.61;81.23;97756.78;1741360;81;21104;-72
2021/03/13 04:01:05;;;;;;;13.72;4.72;;;;;;;0.59;81.25;97750.89;1735192;79;21273;-72
2021/03/13 04:03:35;;;;;;;12.10;4.37;;;;;;;0.58;81.39;97740.66;1738690;81;21232;-72
2021/03/13 04:06:03;;;;;;;9.43;4.47;;;;;;;0.56;81.33;97748.44;1740346;81;21163;-72
2021/03/13 04:08:32;;;;;;;7.55;4.00;;;;;;;0.55;81.37;97745.92;1741285;81;21284;-72
2021/03/13 04:11:00;;;;;;;10.65;3.87;;;;;;;0.54;81.37;97745.09;1747383;81;21195;-72
2021/03/13 04:13:29;;;;;;;12.55;4.35;;;;;;;0.54;81.51;97742.52;1740404;81;21609;-72
2021/03/13 04:17:46;;;;;;;8.93;4.50;;;;;;;0.58;81.68;97736.36;1828240;77;22251;-71
2021/03/13 04:20:15;;;;;;;9.48;3.70;;;;;;;0.53;81.57;97744.68;1797090;79;21014;-70
2021/03/13 04:22:44;;;;;;;6.80;3.67;;;;;;;0.52;81.74;97754.58;1802813;77;22082;-71
2021/03/13 04:25:12;;;;;;;9.73;3.87;;;;;;;0.52;81.76;97757.14;1798494;79;21618;-70
2021/03/13 04:27:46;;;;;;;15.65;4.50;;;;;;;0.51;81.66;97754.20;1803138;78;21558;-71
2021/03/13 04:30:17;;;;;;;14.68;4.42;;;;;;;0.51;81.71;97747.78;1800659;78;20981;-69
2021/03/13 04:32:48;;;;;;;13.60;4.62;;;;;;;0.52;81.78;97748.16;1802495;79;21133;-71
2021/03/13 04:35:17;;;;;;;10.38;3.37;;;;;;;0.54;81.84;97760.50;1798612;79;21130;-71
2021/03/13 04:38:10;;;;;;;8.50;4.03;;;;;;;0.58;81.84;97751.77;1825409;77;22832;-71
2021/03/13 04:40:38;;;;;;;12.00;4.05;;;;;;;0.55;81.90;97754.45;1804501;78;21046;-70
2021/03/13 04:43:06;;;;;;;8.33;4.35;;;;;;;0.58;81.92;97741.49;1804933;78;21157;-70
2021/03/13 04:45:35;;;;;;;8.78;3.17;;;;;;;0.63;81.96;97749.86;1801642;78;21056;-70
2021/03/13 04:48:03;;;;;;;9.93;3.90;;;;;;;0.66;81.99;97749.73;1800134;78;21065;-71
2021/03/13 04:50:31;;;;;;;12.47;4.65;;;;;;;0.69;81.91;97746.67;1797539;78;21066;-70
2021/03/13 04:52:58;;;;;;;11.40;4.95;;;;;;;0.69;81.85;97745.39;1797086;78;21595;-71
2021/03/13 04:55:26;;;;;;;10.35;4.42;;;;;;;0.69;81.89;97740.25;1802154;77;21190;-71
2021/03/13 04:57:55;;;;;;;8.85;4.53;;;;;;;0.71;82.04;97741.03;1717145;81;22132;-72
2021/03/13 05:00:24;;;;;;;9.33;4.08;;;;;;;0.72;81.97;97750.41;1742560;80;21098;-71
2021/03/13 05:02:51;;;;;;;8.20;4.03;;;;;;;0.75;82.04;97745.14;1737812;81;21179;-71
2021/03/13 05:05:18;;;;;;;11.28;5.03;;;;;;;0.76;82.15;97746.84;1742441;81;21151;-70
2021/03/13 05:07:45;;;;;;;11.22;4.92;;;;;;;0.77;82.07;97749.33;1747206;81;21680;-70
2021/03/13 05:10:14;;;;;;;8.55;4.37;;;;;;;0.78;81.94;97754.01;1747463;81;21110;-71
2021/03/13 05:12:43;;;;;;;8.48;4.87;;;;;;;0.79;81.99;97762.13;1741271;80;21455;-71
2021/03/13 05:15:12;;;;;;;6.20;3.17;;;;;;;0.79;81.98;97751.40;1735559;81;21209;-70
2021/03/13 05:17:39;;;;;;;7.95;4.55;;;;;;;0.79;81.98;97749.28;1745987;81;21658;-72
2021/03/13 05:20:08;;;;;;;7.87;3.95;;;;;;;0.79;82.04;97757.82;1738937;81;21248;-70
2021/03/13 05:22:35;;;;;;;6.37;4.15;;;;;;;0.81;82.20;97744.89;1736534;81;21183;-70
2021/03/13 05:25:04;;;;;;;7.58;4.05;;;;;;;0.83;82.10;97750.81;1741205;81;21187;-70
2021/03/13 05:27:31;;;;;;;8.63;4.35;;;;;;;0.85;82.23;97749.86;1739931;81;21269;-71
2021/03/13 05:29:58;;;;;;;8.58;4.47;;;;;;;0.90;82.30;97752.27;1742816;81;21168;-70
2021/03/13 05:32:26;;;;;;;7.62;3.50;;;;;;;0.95;82.25;97756.74;1745749;81;22479;-71
2021/03/13 05:34:54;;;;;;;8.68;3.72;;;;;;;1.01;82.34;97764.66;1709732;80;21682;-71
2021/03/13 05:37:21;;;;;;;;;;;;;;;1.05;82.32;97759.34;1742583;81;21080;-71
2021/03/13 05:39:48;;;;;;;6.37;3.55;;;;;;;1.11;82.37;97764.23;1770822;80;21604;-71
2021/03/13 05:42:17;;;;;;;10.05;4.20;;;;;;;1.17;82.46;97764.89;1743874;80;21630;-71
2021/03/13 05:45:06;;;;;;;12.90;3.77;;;;;;;1.21;82.31;97769.02;1768483;78;21222;-70
2021/03/13 05:47:36;;;;;;;7.30;3.72;;;;;;;1.25;82.32;97770.09;1751041;80;21662;-70
2021/03/13 05:50:14;;;;;;;6.25;3.55;;;;;;;1.30;82.27;97775.06;1751817;81;21244;-70
2021/03/13 05:52:49;;;;;;;6.25;3.02;;;;;;;1.35;82.30;97771.86;1746282;81;21057;-71
2021/03/13 05:55:18;;;;;;;7.10;3.10;;;;;;;1.40;82.29;97771.23;1737568;80;21656;-71
2021/03/13 05:57:45;;;;;;;6.28;3.05;;;;;;;1.45;82.34;97775.70;1737248;80;21640;-72
2021/03/13 06:00:34;;;;;;;9.03;3.70;;;;;;;1.49;82.29;97772.12;1739520;80;21403;-72
2021/03/13 06:03:02;;;;;;;5.95;3.30;;;;;;;1.52;82.30;97774.56;1678604;84;21237;-71
2021/03/13 06:05:29;;;;;;;5.67;3.30;;;;;;;1.60;82.36;97779.81;1678252;84;21676;-72
2021/03/13 06:07:57;;;;;;;8.88;3.60;;;;;;;1.65;82.31;97780.47;1681562;84;21198;-72
2021/03/13 06:10:25;;;;;;;8.98;4.47;;;;;;;1.69;82.35;97789.74;1680552;84;21217;-72
2021/03/13 06:13:14;;;;;;;6.83;3.15;;;;;;;1.73;82.30;97777.95;1583968;89;21262;-72
2021/03/13 06:15:44;;;;;;;6.37;3.45;;;;;;;1.78;82.26;97779.05;1611414;88;21215;-72
2021/03/13 06:18:11;;;;;;;4.00;2.85;;;;;;;1.79;82.27;97776.85;1607870;88;21243;-72
2021/03/13 06:20:42;;;;;;;4.90;3.05;;;;;;;1.84;82.28;97774.92;1583252;89;21705;-72
2021/03/13 06:23:13;;;;;;;6.70;3.27;;;;;;;1.91;82.33;97773.77;1550937;90;21228;-72
2021/03/13 06:25:42;;;;;;;6.65;4.00;;;;;;;2.00;82.32;97778.97;1598287;88;21234;-72
2021/03/13 06:28:14;;;;;;;6.58;3.58;;;;;;;2.06;82.25;97779.14;1599054;88;21617;-71
2021/03/13 06:30:45;;;;;;;6.55;3.85;;;;;;;2.14;82.33;97787.38;1602205;88;21299;-71
2021/03/13 06:33:30;;;;;;;7.53;3.95;;;;;;;2.19;82.25;97777.71;1579378;89;21249;-71
2021/03/13 06:36:06;;;;;;;8.23;4.00;;;;;;;2.24;82.23;97780.89;1576721;90;22071;-71
2021/03/13 06:38:37;;;;;;;6.90;3.72;;;;;;;2.30;82.18;97783.22;1575041;89;21702;-71
2021/03/13 06:41:18;;;;;;;8.98;4.20;;;;;;;2.31;82.10;97784.88;1600342;88;21124;-71
2021/03/13 06:43:47;;;;;;;8.45;4.72;;;;;;;2.31;82.14;97790.03;1578831;89;21183;-72
2021/03/13 06:46:21;;;;;;;9.73;4.95;;;;;;;2.35;82.18;97791.58;1576405;88;21159;-72
2021/03/13 06:48:55;;;;;;;11.70;5.17;;;;;;;2.42;82.26;97781.36;1580889;89;21245;-72
2021/03/13 06:51:38;;;;;;;8.50;4.95;;;;;;;2.54;82.22;97790.73;1605079;88;21263;-71
2021/03/13 06:54:13;;;;;;;6.78;4.58;;;;;;;2.61;82.11;97796.00;1606598;88;21191;-71
2021/03/13 06:56:46;;;;;;;5.03;3.67;;;;;;;2.65;82.15;97800.09;1575260;88;21346;-71
2021/03/13 07:02:12;;;;;;;6.58;4.30;;;;;;;2.79;82.01;97799.00;1829598;75;22816;-70
2021/03/13 07:04:44;;;;;;;6.08;4.37;;;;;;;2.76;81.94;97804.30;1796389;78;21029;-71
2021/03/13 07:07:27;;;;;;;19.00;10.25;;;;;;;2.78;82.01;97801.20;1805568;78;21050;-72
2021/03/13 07:11:24;;;;;;;18.98;10.10;;;;;;;2.99;82.12;97808.38;1830696;77;22540;-71
2021/03/13 07:13:54;;;;;;;7.97;5.85;;;;;;;3.06;82.10;97804.61;1744444;81;21594;-69
2021/03/13 07:16:31;;;;;;;7.15;4.78;;;;;;;3.20;82.00;97813.44;1767164;79;21192;-71
2021/03/13 07:19:09;;;;;;;6.50;4.12;;;;;;;3.25;81.84;97809.73;1737978;80;21204;-72
2021/03/13 07:21:40;;;;;;;7.53;5.17;;;;;;;3.29;81.72;97810.41;1739246;80;21902;-74
2021/03/13 07:24:13;;;;;;;10.13;5.17;;;;;;;3.33;81.76;97816.65;1734518;80;21671;-73
2021/03/13 07:26:46;;;;;;;9.45;5.80;;;;;;;3.41;81.85;97818.00;1738783;82;21104;-71
2021/03/13 07:29:15;;;;;;;12.73;9.08;;;;;;;3.50;81.88;97821.41;1747009;81;21275;-74
2021/03/13 07:32:02;;;;;;;7.05;4.87;;;;;;;3.58;81.76;97810.27;1745431;80;21044;-72
2021/03/13 07:34:36;;;;;;;7.40;5.67;;;;;;;3.68;81.70;97814.07;1744654;80;21010;-73
2021/03/13 07:37:05;;;;;;;13.18;9.10;;;;;;;3.89;81.80;97816.48;1748309;80;21602;-75
2021/03/13 07:39:41;;;;;;;10.70;7.10;;;;;;;4.11;81.52;97813.17;1735993;81;21199;-73
2021/03/13 07:42:28;;;;;;;13.13;7.17;;;;;;;4.31;81.60;97811.31;1736090;82;22144;-75
2021/03/13 07:44:57;;;;;;;8.03;5.90;;;;;;;4.56;81.64;97811.67;1676141;84;21219;-74
2021/03/13 07:47:27;;;;;;;14.28;9.65;;;;;;;4.81;81.45;97800.02;1671951;84;22684;-75
2021/03/13 07:49:54;;;;;;;24.57;14.90;;;;;;;4.93;81.19;97811.01;1671551;84;21285;-74
2021/03/13 07:52:22;;;;;;;33.60;16.70;;;;;;;5.08;81.27;97804.98;1677463;84;21236;-75
2021/03/13 07:54:55;;;;;;;29.60;18.07;;;;;;;5.23;81.21;97801.16;1674852;84;21936;-76
2021/03/13 07:57:23;;;;;;;13.65;8.50;;;;;;;5.32;80.75;97805.37;1674454;84;21258;-77
2021/03/13 07:59:53;;;;;;;;;;;;;;;5.44;80.68;97812.89;1676703;84;21096;-73
2021/03/13 08:02:35;;;;;;;9.00;5.87;;;;;;;5.53;80.77;97812.83;1668552;84;20239;-73
2021/03/13 08:07:30;;;;;;;9.75;5.83;;;;;;;5.98;80.80;97809.81;1831529;77;22767;-72
2021/03/13 08:09:58;;;;;;;9.53;5.90;;;;;;;6.08;80.68;97813.97;1792029;78;22235;-72
2021/03/13 08:12:42;;;;;;;7.55;4.28;;;;;;;6.11;79.97;97811.23;1805951;78;21204;-73
2021/03/13 08:15:38;;;;;;;7.12;5.28;;;;;;;6.04;79.73;97821.92;1769464;78;21068;-72
2021/03/13 08:18:09;;;;;;;8.03;4.20;;;;;;;5.95;79.94;97823.77;1779300;78;21209;-73
2021/03/13 08:20:36;;;;;;;7.90;4.30;;;;;;;5.99;80.03;97823.13;1723127;80;21002;-74
2021/03/13 08:23:18;;;;;;;7.25;4.37;;;;;;;5.92;79.76;97829.11;1742043;79;21194;-73
2021/03/13 08:26:00;;;;;;;6.58;4.00;;;;;;;5.78;79.48;97821.31;1767705;79;21217;-73
2021/03/13 08:28:50;;;;;;;16.97;7.70;;;;;;;5.70;79.63;97829.98;1747782;80;21101;-73
2021/03/13 08:31:28;;;;;;;9.40;5.67;;;;;;;5.65;79.69;97828.11;1735472;81;21127;-72
2021/03/13 08:34:04;;;;;;;9.15;3.98;;;;;;;5.50;79.56;97837.59;1760837;80;21167;-72
2021/03/13 08:36:41;;;;;;;18.50;9.30;;;;;;;5.50;80.22;97828.06;1728178;81;21252;-72
2021/03/13 08:39:11;;;;;;;14.07;9.80;;;;;;;5.63;80.11;97823.47;1719735;81;22235;-71
2021/03/13 08:41:46;;;;;;;11.10;6.25;;;;;;;5.54;79.60;97827.42;1740804;80;21175;-72
2021/03/13 08:44:28;;;;;;;6.72;4.12;;;;;;;5.46;79.91;97826.59;1747193;80;21212;-72
2021/03/13 08:47:10;;;;;;;7.15;4.37;;;;;;;5.50;79.99;97833.25;1745108;80;21060;-71
2021/03/13 08:49:48;;;;;;;6.12;4.17;;;;;;;5.53;79.91;97824.01;1740143;80;21658;-72
2021/03/13 08:52:21;;;;;;;11.78;6.12;;;;;;;5.59;79.89;97828.00;1749308;80;21475;-75
2021/03/13 08:54:51;;;;;;;7.25;5.20;;;;;;;5.63;79.81;97823.47;1750134;80;21158;-71
2021/03/13 08:57:30;;;;;;;9.30;5.08;;;;;;;5.57;79.75;97825.52;1733635;81;21247;-72
2021/03/13 09:00:01;;;;;;;7.37;4.40;;;;;;;5.55;79.82;97823.47;1633201;82;21256;-72
2021/03/13 09:02:38;;;;;;;8.30;4.20;;;;;;;5.48;79.50;97829.08;1655770;84;21213;-71
2021/03/13 09:05:11;;;;;;;;;;;;;;;5.40;79.51;97826.91;1636600;84;21221;-74
2021/03/13 09:07:41;;;;;;;9.08;5.45;;;;;;;5.37;79.57;97827.09;1647613;85;20231;-71
2021/03/13 09:10:09;;;;;;;8.90;5.20;;;;;;;5.30;79.75;97811.55;1634217;86;21173;-71
2021/03/13 09:12:39;;;;;;;7.67;5.08;;;;;;;5.29;79.67;97824.09;1653065;85;21257;-72
2021/03/13 09:15:11;;;;;;;6.37;4.28;;;;;;;5.26;79.65;97822.51;1632908;86;21256;-72
2021/03/13 09:17:38;;;;;;;5.35;3.75;;;;;;;5.21;79.61;97818.52;1642457;85;21219;-70
2021/03/13 09:20:11;;;;;;;11.45;5.40;;;;;;;5.18;79.57;97826.45;1626655;86;21282;-68
2021/03/13 09:22:42;;;;;;;8.95;5.42;;;;;;;5.15;79.68;97816.66;1631931;86;21224;-73
2021/03/13 09:27:26;;;;;;;8.18;5.50;;;;;;;5.25;79.62;97817.44;1800829;77;22812;-71
2021/03/13 09:29:54;;;;;;;13.00;7.35;;;;;;;5.30;79.86;97815.43;1772166;79;21111;-74
2021/03/13 09:32:23;;;;;;;9.33;5.58;;;;;;;5.43;79.78;97820.27;1712376;82;21208;-75
2021/03/13 09:34:55;;;;;;;11.57;8.23;;;;;;;5.47;79.51;97817.89;1723419;81;21901;-71
2021/03/13 09:37:48;;;;;;;33.33;19.92;;;;;;;5.54;79.62;97824.37;1727117;81;21062;-71
2021/03/13 09:40:19;;;;;;;8.90;6.03;;;;;;;5.67;79.66;97827.57;1654789;85;21068;-73
2021/03/13 09:42:49;;;;;;;6.95;4.20;;;;;;;5.89;79.74;97829.29;1653765;85;21115;-73
2021/03/13 09:45:19;;;;;;;5.12;3.45;;;;;;;6.10;79.74;97813.42;1653688;85;21211;-74
2021/03/13 09:47:58;;;;;;;8.38;3.50;;;;;;;6.32;79.55;97820.28;1625863;86;21080;-72
2021/03/13 09:50:30;;;;;;;5.45;3.08;;;;;;;6.38;79.22;97816.02;1650336;85;21625;-74
2021/03/13 09:53:00;;;;;;;5.33;3.40;;;;;;;6.33;78.95;97815.92;1634138;86;21257;-74
2021/03/13 09:55:30;;;;;;;5.67;3.80;;;;;;;6.36;78.97;97812.71;1654465;85;21657;-74
2021/03/13 09:58:05;;;;;;;5.12;3.45;;;;;;;6.38;79.06;97818.61;1651422;85;21434;-73
2021/03/13 10:00:39;;;;;;;6.83;3.52;;;;;;;6.46;78.98;97810.38;1652005;85;21640;-73
2021/03/13 10:03:17;;;;;;;4.45;3.27;;;;;;;6.48;78.88;97811.13;1647417;85;21658;-74
2021/03/13 10:05:54;;;;;;;6.03;3.40;;;;;;;6.48;78.76;97805.94;1648063;85;21122;-75
2021/03/13 10:08:24;;;;;;;;;;;;;;;6.56;78.99;97804.19;1657792;85;21012;-75
2021/03/13 10:10:51;;;;;;;5.60;3.12;;;;;;;6.61;78.72;97800.38;1639787;86;21746;-74
2021/03/13 10:13:21;;;;;;;;;;;;;;;6.69;78.87;97811.55;1650582;85;21492;-75
2021/03/13 10:15:49;;;;;;;6.00;4.10;;;;;;;6.80;78.30;97808.30;1633134;86;20301;-75
2021/03/13 10:18:19;;;;;;;7.28;3.77;;;;;;;6.79;78.29;97810.06;1647156;85;21701;-76
2021/03/13 10:20:53;;;;;;;9.43;5.50;;;;;;;6.92;78.94;97790.22;1648449;84;21693;-76
2021/03/13 10:25:09;;;;;;;6.12;4.25;;;;;;;7.74;78.84;97798.77;1802929;78;23398;-70
2021/03/13 10:27:36;;;;;;;10.10;6.28;;;;;;;8.02;78.57;97795.14;1771995;80;20997;-72
2021/03/13 10:30:13;;;;;;;10.63;5.58;;;;;;;8.20;78.07;97782.65;1770225;80;22125;-72
2021/03/13 10:34:18;;;;;;;13.62;6.53;;;;;;;8.64;77.79;97773.58;1827082;77;22857;-72
2021/03/13 10:36:45;;;;;;;8.70;4.53;;;;;;;8.76;77.96;97786.18;1801972;78;20985;-73
2021/03/13 10:39:13;;;;;;;10.40;6.03;;;;;;;8.86;77.25;97791.58;1794558;78;22151;-73
2021/03/13 10:41:55;;;;;;;8.25;6.15;;;;;;;8.68;76.81;97786.75;1796204;78;21574;-72
2021/03/13 10:44:21;;;;;;;7.50;4.53;;;;;;;8.54;76.63;97788.63;1804297;78;21060;-72
2021/03/13 10:46:51;;;;;;;6.25;5.30;;;;;;;8.37;76.52;97780.67;1793833;78;21745;-72
2021/03/13 10:53:36;;;;;;;6.22;4.60;;;;;;;8.26;76.58;97771.86;1784239;77;22780;-71
2021/03/13 10:56:10;;;;;;;8.15;4.58;;;;;;;8.13;76.67;97778.83;1750572;80;21430;-72
2021/03/13 10:59:00;;;;;;;6.65;4.20;;;;;;;8.12;76.70;97777.61;1748317;80;21637;-71
2021/03/13 11:01:27;;;;;;;6.42;3.98;;;;;;;8.11;76.52;97767.69;1595197;87;21280;-72
2021/03/13 11:03:58;;;;;;;6.12;4.37;;;;;;;8.17;76.52;97769.87;1612324;86;21600;-72
2021/03/13 11:06:36;;;;;;;7.70;3.70;;;;;;;8.16;76.22;97773.41;1614236;86;21182;-72
2021/03/13 11:09:11;;;;;;;5.15;3.65;;;;;;;8.30;76.27;97762.89;1625631;86;21226;-72
2021/03/13 11:12:00;;;;;;;6.08;4.12;;;;;;;8.37;75.92;97765.06;1622045;86;21233;-73
2021/03/13 11:15:49;;;;;;;6.55;5.35;;;;;;;8.25;75.73;97770.17;1827353;77;24544;-71
2021/03/13 11:18:16;;;;;;;12.25;5.20;;;;;;;8.13;75.48;97771.03;1810339;78;21652;-70
2021/03/13 11:20:45;;;;;;;6.05;3.70;;;;;;;8.01;75.75;97765.34;1797171;78;21202;-69
2021/03/13 11:23:13;;;;;;;7.67;3.80;;;;;;;8.01;75.67;97771.84;1794956;78;21045;-70
2021/03/13 11:25:40;;;;;;;6.60;4.45;;;;;;;8.00;75.75;97768.42;1794515;78;21889;-70
2021/03/13 11:28:09;;;;;;;8.38;3.80;;;;;;;8.04;75.86;97771.66;1799832;78;21636;-70
2021/03/13 11:33:00;;;;;;;7.08;3.27;;;;;;;8.00;75.51;97772.79;1793754;77;22601;-70
2021/03/13 11:35:30;;;;;;;;;;;;;;;7.80;74.95;97761.97;1767208;79;21087;-70
2021/03/13 11:37:57;;;;;;;6.92;3.47;;;;;;;7.66;74.78;97771.16;1770975;80;21285;-70
2021/03/13 11:40:25;;;;;;;5.05;2.77;;;;;;;7.71;75.44;97763.89;1771076;79;21054;-71
2021/03/13 11:42:54;;;;;;;5.87;3.05;;;;;;;7.74;75.20;97759.79;1767154;80;21044;-70
2021/03/13 11:48:00;;;;;;;6.10;3.25;;;;;;;7.87;74.88;97740.77;1827790;77;24560;-69
2021/03/13 11:50:29;;;;;;;9.28;4.37;;;;;;;7.90;74.88;97750.95;1799773;78;21105;-70
2021/03/13 11:52:59;;;;;;;7.72;3.22;;;;;;;8.11;74.75;97746.90;1803393;78;22208;-70
2021/03/13 11:55:26;;;;;;;;;;;;;;;8.33;74.99;97738.45;1805001;78;21052;-71
2021/03/13 11:57:54;;;;;;;4.00;2.87;;;;;;;8.37;74.08;97737.76;1795871;78;20129;-70
2021/03/13 12:00:22;;;;;;;5.17;3.30;;;;;;;8.37;74.47;97739.88;1799819;78;21165;-71
2021/03/13 12:02:54;;;;;;;7.05;3.00;;;;;;;8.52;74.36;97732.83;1799928;78;21052;-71
2021/03/13 12:05:26;;;;;;;4.67;2.72;;;;;;;8.58;74.36;97727.19;1798698;78;21204;-69
2021/03/13 12:07:53;;;;;;;;;;;;;;;8.58;73.77;97713.36;1802969;78;21570;-70
2021/03/13 12:10:21;;;;;;;5.95;3.15;;;;;;;8.46;73.18;97709.86;1792124;78;20115;-70
2021/03/13 12:12:51;;;;;;;6.85;2.95;;;;;;;8.32;73.65;97720.34;1799583;78;21172;-71
2021/03/13 12:15:22;;;;;;;4.58;3.20;;;;;;;8.28;73.96;97714.06;1800151;78;21614;-71
2021/03/13 12:17:54;;;;;;;6.00;3.22;;;;;;;8.22;73.76;97705.39;1804313;78;21797;-69
2021/03/13 12:20:22;;;;;;;3.87;2.70;;;;;;;8.13;73.50;97711.24;1770144;80;21204;-70
2021/03/13 12:22:49;;;;;;;;;;;;;;;8.06;73.58;97705.61;1773627;80;21059;-70
2021/03/13 12:25:16;;;;;;;6.10;2.85;;;;;;;8.05;73.56;97703.14;1774336;79;20293;-71
2021/03/13 12:27:45;;;;;;;5.70;2.80;;;;;;;8.00;73.53;97701.32;1769270;80;21151;-71
2021/03/13 12:30:15;;;;;;;7.17;3.52;;;;;;;8.00;73.47;97690.92;1769350;80;21690;-71
2021/03/13 12:32:42;;;;;;;7.33;3.50;;;;;;;8.01;73.32;97683.48;1771733;80;21665;-70